createdAt,value
2023-01-19T00:02:55.680Z,5.40
2023-01-19T00:06:44.563Z,4.60
2023-01-19T00:10:27.450Z,4.80
2023-01-19T00:14:09.934Z,5.90
2023-01-19T00:17:44.879Z,4.10
2023-01-19T00:21:52.916Z,5.10
2023-01-19T00:25:54.345Z,5.20
2023-01-19T00:29:43.507Z,5.50
2023-01-19T00:33:37.551Z,5.60
2023-01-19T00:37:39.710Z,4.90
2023-01-19T00:41:41.622Z,4.90
2023-01-19T00:45:03.085Z,5.20
2023-01-19T00:49:19.053Z,4.30
2023-01-19T00:53:03.961Z,4.00
2023-01-19T00:56:25.150Z,5.40
2023-01-19T00:59:32.372Z,4.30
2023-01-19T01:03:06.828Z,4.30
2023-01-19T01:07:08.991Z,3.90
2023-01-19T01:10:36.953Z,3.70
2023-01-19T01:14:27.660Z,3.80
2023-01-19T01:18:29.959Z,3.60
2023-01-19T01:22:20.112Z,3.70
2023-01-19T01:25:26.746Z,4.40
2023-01-19T01:28:31.708Z,5.90
2023-01-19T01:31:33.706Z,7.90
2023-01-19T01:34:46.641Z,6.40
2023-01-19T01:38:38.680Z,7.40
2023-01-19T01:42:30.402Z,11.40
2023-01-19T01:46:32.580Z,7.10
2023-01-19T01:49:55.650Z,5.50
2023-01-19T01:54:00.303Z,4.70
2023-01-19T01:57:45.640Z,5.40
2023-01-19T02:01:37.758Z,3.10
2023-01-19T02:05:13.548Z,3.30
2023-01-19T02:09:14.025Z,3.00
2023-01-19T02:13:14.633Z,2.90
2023-01-19T02:17:17.377Z,3.20
2023-01-19T02:21:19.599Z,3.00
2023-01-19T02:24:25.518Z,3.00
2023-01-19T02:27:39.876Z,2.50
2023-01-19T02:31:17.568Z,2.20
2023-01-19T02:34:39.866Z,2.30
2023-01-19T02:38:23.462Z,2.70
2023-01-19T02:42:19.957Z,2.60
2023-01-19T02:46:22.248Z,2.90
2023-01-19T02:49:50.471Z,2.60
2023-01-19T02:53:52.654Z,3.20
2023-01-19T02:57:49.210Z,2.80
2023-01-19T03:01:31.660Z,2.50
2023-01-19T03:04:42.498Z,2.40
2023-01-19T03:08:31.259Z,2.50
2023-01-19T03:12:33.135Z,2.60
2023-01-19T03:16:52.256Z,2.30
2023-01-19T03:20:53.484Z,2.10
2023-01-19T03:28:35.012Z,2.80
2023-01-19T03:32:35.706Z,2.60
2023-01-19T03:36:48.424Z,2.80
2023-01-19T03:40:59.685Z,2.50
2023-01-19T03:44:42.341Z,2.90
2023-01-19T03:48:43.986Z,2.60
2023-01-19T03:52:46.209Z,3.00
2023-01-19T03:57:03.682Z,3.60
2023-01-19T04:00:55.454Z,3.00
2023-01-19T04:04:56.795Z,3.10
2023-01-19T04:11:57.658Z,5.60
2023-01-19T04:15:48.832Z,2.90
2023-01-19T04:19:42.961Z,3.70
2023-01-19T04:23:49.229Z,4.00
2023-01-19T04:27:50.211Z,3.00
2023-01-19T04:31:31.266Z,3.70
2023-01-19T04:35:33.608Z,3.20
2023-01-19T04:39:06.348Z,3.70
2023-01-19T04:43:08.532Z,3.60
2023-01-19T04:47:02.750Z,4.60
2023-01-19T04:50:58.184Z,4.70
2023-01-19T04:54:43.083Z,4.50
2023-01-19T04:57:53.900Z,4.70
2023-01-19T05:01:18.305Z,4.10
2023-01-19T05:05:13.424Z,5.70
2023-01-19T05:09:08.405Z,4.20
2023-01-19T05:13:09.405Z,4.40
2023-01-19T05:16:54.555Z,4.40
2023-01-19T05:20:03.896Z,5.60
2023-01-19T05:23:16.113Z,5.10
2023-01-19T05:26:46.381Z,5.10
2023-01-19T05:30:08.722Z,4.10
2023-01-19T05:33:14.972Z,4.60
2023-01-19T05:37:04.615Z,4.70
2023-01-19T05:40:36.013Z,4.80
2023-01-19T05:44:10.209Z,7.40
2023-01-19T05:48:02.309Z,5.20
2023-01-19T05:51:37.944Z,4.50
2023-01-19T05:55:40.129Z,7.50
2023-01-19T05:58:45.097Z,4.70
2023-01-19T06:02:08.038Z,4.60
2023-01-19T06:05:45.398Z,3.80
2023-01-19T06:09:07.437Z,4.40
2023-01-19T06:12:08.993Z,5.90
2023-01-19T06:15:42.146Z,6.90
2023-01-19T06:18:43.735Z,5.90
2023-01-19T06:22:07.353Z,6.00
2023-01-19T06:25:33.138Z,4.90
2023-01-19T06:29:03.556Z,7.90
2023-01-19T06:32:38.433Z,6.40
2023-01-19T06:36:40.743Z,6.40
2023-01-19T06:40:08.625Z,5.40
2023-01-19T06:43:13.787Z,6.90
2023-01-19T06:46:17.647Z,10.00
2023-01-19T06:50:07.018Z,6.40
2023-01-19T06:53:21.774Z,7.60
2023-01-19T06:56:28.481Z,6.50
2023-01-19T06:59:42.194Z,7.80
2023-01-19T07:02:54.908Z,9.00
2023-01-19T07:06:35.925Z,7.70
2023-01-19T07:10:16.134Z,6.60
2023-01-19T07:13:50.791Z,6.10
2023-01-19T07:17:43.659Z,6.70
2023-01-19T07:21:02.355Z,7.60
2023-01-19T07:24:34.981Z,6.50
2023-01-19T07:28:03.087Z,8.40
2023-01-19T07:31:48.048Z,6.80
2023-01-19T07:35:04.029Z,7.80
2023-01-19T07:38:57.141Z,7.80
2023-01-19T07:42:51.663Z,8.20
2023-01-19T07:46:00.817Z,7.60
2023-01-19T07:49:07.951Z,7.80
2023-01-19T07:52:55.510Z,7.50
2023-01-19T07:56:43.128Z,7.90
2023-01-19T08:00:35.455Z,7.60
2023-01-19T08:04:11.394Z,10.10
2023-01-19T08:08:05.414Z,7.00
2023-01-19T08:11:37.906Z,8.80
2023-01-19T08:14:51.399Z,6.90
2023-01-19T08:18:15.144Z,7.60
2023-01-19T08:22:00.066Z,9.80
2023-01-19T08:25:19.670Z,6.90
2023-01-19T08:28:22.094Z,8.70
2023-01-19T08:32:04.446Z,7.70
2023-01-19T08:35:34.351Z,10.40
2023-01-19T08:38:42.912Z,8.00
2023-01-19T08:42:44.445Z,9.60
2023-01-19T08:50:28.409Z,13.20
2023-01-19T08:54:23.682Z,8.10
2023-01-19T08:58:14.220Z,6.40
2023-01-19T09:02:16.543Z,6.60
2023-01-19T09:06:00.878Z,6.70
2023-01-19T09:09:44.322Z,7.40
2023-01-19T09:13:16.605Z,7.00
2023-01-19T09:17:01.585Z,5.90
2023-01-19T09:20:49.384Z,5.50
2023-01-19T09:24:34.443Z,6.40
2023-01-19T09:28:27.091Z,8.10
2023-01-19T09:32:04.978Z,6.30
2023-01-19T09:35:28.485Z,6.50
2023-01-19T09:39:41.619Z,5.80
2023-01-19T09:48:10.801Z,5.70
2023-01-19T09:52:15.758Z,6.70
2023-01-19T09:56:11.095Z,6.10
2023-01-19T10:00:07.401Z,5.20
2023-01-19T10:03:54.733Z,5.20
2023-01-19T10:07:52.499Z,7.20
2023-01-19T10:11:52.966Z,7.00
2023-01-19T10:15:54.797Z,6.40
2023-01-19T10:19:37.765Z,4.70
2023-01-19T10:23:31.613Z,10.00
2023-01-19T10:27:22.355Z,6.30
2023-01-19T10:31:17.539Z,5.00
2023-01-19T10:35:19.818Z,5.60
2023-01-19T10:39:22.007Z,6.00
2023-01-19T10:43:24.308Z,5.60
2023-01-19T10:47:10.676Z,5.90
2023-01-19T10:51:11.813Z,6.80
2023-01-19T10:55:14.088Z,6.20
2023-01-19T10:59:23.991Z,4.70
2023-01-19T11:03:12.627Z,6.20
2023-01-19T11:07:08.923Z,7.50
2023-01-19T11:11:17.298Z,4.80
2023-01-19T11:15:09.299Z,4.50
2023-01-19T11:19:17.429Z,5.50
2023-01-19T11:23:20.055Z,9.80
2023-01-19T11:27:16.356Z,7.70
2023-01-19T11:31:19.684Z,9.10
2023-01-19T11:35:16.456Z,6.10
2023-01-19T11:39:24.611Z,5.80
2023-01-19T11:43:15.868Z,4.80
2023-01-19T11:47:18.768Z,7.30
2023-01-19T11:51:21.740Z,5.70
2023-01-19T11:55:07.099Z,5.60
2023-01-19T11:59:04.595Z,4.20
2023-01-19T12:03:22.685Z,4.60
2023-01-19T12:07:25.444Z,4.70
2023-01-19T12:11:27.672Z,7.80
2023-01-19T12:15:43.232Z,6.10
2023-01-19T12:19:47.755Z,5.10
2023-01-19T12:23:58.795Z,4.30
2023-01-19T12:28:06.550Z,5.10
2023-01-19T12:32:08.807Z,4.90
2023-01-19T12:36:08.492Z,5.10
2023-01-19T12:40:16.284Z,5.30
2023-01-19T12:44:12.573Z,5.20
2023-01-19T12:48:08.025Z,5.40
2023-01-19T12:52:06.408Z,5.50
2023-01-19T12:56:17.580Z,4.70
2023-01-19T13:00:15.379Z,6.10
2023-01-19T13:04:16.422Z,5.10
2023-01-19T13:08:17.949Z,5.00
2023-01-19T13:12:13.007Z,5.00
2023-01-19T13:16:33.996Z,5.40
2023-01-19T13:20:36.356Z,5.70
2023-01-19T13:24:49.917Z,5.80
2023-01-19T13:28:54.689Z,5.70
2023-01-19T13:32:39.633Z,4.10
2023-01-19T13:36:42.019Z,4.90
2023-01-19T13:40:37.686Z,6.50
2023-01-19T13:44:23.134Z,5.70
2023-01-19T13:48:24.469Z,6.30
2023-01-19T13:52:27.811Z,4.20
2023-01-19T13:56:28.708Z,6.00
2023-01-19T14:00:31.518Z,5.80
2023-01-19T14:04:19.329Z,4.50
2023-01-19T14:08:21.701Z,4.70
2023-01-19T14:12:29.312Z,5.50
2023-01-19T14:16:32.044Z,4.70
2023-01-19T14:20:40.540Z,3.90
2023-01-19T14:24:45.856Z,5.70
2023-01-19T14:28:50.269Z,4.20
2023-01-19T14:32:31.840Z,4.10
2023-01-19T14:36:27.198Z,4.10
2023-01-19T14:40:47.916Z,3.30
2023-01-19T14:44:48.968Z,4.60
2023-01-19T14:48:54.857Z,5.50
2023-01-19T14:52:56.921Z,3.90
2023-01-19T14:57:05.209Z,4.20
2023-01-19T15:01:07.454Z,4.60
2023-01-19T15:05:15.384Z,5.50
2023-01-19T15:08:29.664Z,4.90
2023-01-19T15:11:35.239Z,5.60
2023-01-19T15:15:37.465Z,4.40
2023-01-19T15:19:37.213Z,9.20
2023-01-19T15:23:15.234Z,5.40
2023-01-19T15:27:08.472Z,8.20
2023-01-19T15:31:08.051Z,9.20
2023-01-19T15:35:04.450Z,8.80
2023-01-19T15:38:56.857Z,5.50
2023-01-19T15:42:34.440Z,9.40
2023-01-19T15:46:28.291Z,8.70
2023-01-19T15:50:19.187Z,10.90
2023-01-19T15:54:40.191Z,10.40
2023-01-19T15:58:40.750Z,7.80
2023-01-19T16:02:37.569Z,11.30
2023-01-19T16:06:41.404Z,11.10
2023-01-19T16:10:46.641Z,8.70
2023-01-19T16:14:40.388Z,8.70
2023-01-19T16:18:43.125Z,8.90
2023-01-19T16:29:04.671Z,6.70
2023-01-19T16:55:46.846Z,11.50
2023-01-19T16:59:54.842Z,8.90
2023-01-19T17:03:39.825Z,8.10
2023-01-19T17:07:36.148Z,8.40
2023-01-19T17:11:38.089Z,10.60
2023-01-19T17:15:33.586Z,7.20
2023-01-19T17:24:01.485Z,8.10
2023-01-19T17:28:05.226Z,8.70
2023-01-19T17:31:54.739Z,6.90
2023-01-19T17:35:50.090Z,8.40
2023-01-19T17:39:36.401Z,11.40
2023-01-19T17:43:29.729Z,14.30
2023-01-19T17:47:27.038Z,9.10
2023-01-19T17:51:31.211Z,8.40
2023-01-19T17:55:34.942Z,9.70
2023-01-19T17:59:14.149Z,8.80
2023-01-19T18:07:32.592Z,8.90
2023-01-19T18:11:29.094Z,13.30
2023-01-19T18:15:30.375Z,13.50
2023-01-19T18:19:24.106Z,17.90
2023-01-19T18:23:27.828Z,16.70
2023-01-19T18:27:12.806Z,31.50
2023-01-19T18:31:16.494Z,29.70
2023-01-19T18:35:20.231Z,13.30
2023-01-19T18:39:09.458Z,12.90
2023-01-19T18:43:19.085Z,11.80
2023-01-19T18:47:21.568Z,18.30
2023-01-19T18:51:24.691Z,20.30
2023-01-19T18:55:20.022Z,19.10
2023-01-19T18:59:18.422Z,17.40
2023-01-19T19:03:20.609Z,18.80
2023-01-19T19:07:33.044Z,14.50
2023-01-19T19:11:26.865Z,16.70
2023-01-19T19:15:21.703Z,14.50
2023-01-19T19:19:13.728Z,19.10
2023-01-19T19:23:10.177Z,15.70
2023-01-19T19:27:14.481Z,13.80
2023-01-19T19:31:01.286Z,13.70
2023-01-19T19:35:06.282Z,12.30
2023-01-19T19:39:10.293Z,9.00
2023-01-19T19:43:14.009Z,13.20
2023-01-19T19:47:18.134Z,11.90
2023-01-19T19:51:17.129Z,14.70
2023-01-19T19:55:22.018Z,9.90
2023-01-19T19:59:26.343Z,11.40
2023-01-19T20:03:15.323Z,11.80
2023-01-19T20:07:18.099Z,11.30
2023-01-19T20:11:10.831Z,14.50
2023-01-19T20:15:07.245Z,14.00
